RCH111 LLBG-LICZ
Flight info
| Callsign | RCH111 |
|---|---|
| Flight time | 2h 40m |
| Altitude | 38000 |
| Route | SUVAS L53 STEPA M1 KAVOS UM1 GUDIS DCT ROTAS DCT TISAL DCT VUSME |
| Aircraft | B737/M-SDFGHIM1RWXYZ/LB1 |
Departure
| Time | 2026-04-25 00:10 |
|---|---|
| Airport | Ben Gurion International Airport (LLBG) |
Arrival
| Time | 2026-04-25 02:50 |
|---|---|
| Airport | Sigonella Navy Air Base (LICZ) |
| Time | Latitude | Longitude | Altitude | Speed | Heading |
|---|---|---|---|---|---|
| 2026-04-25 00:04 | 32.00707 | 34.88002 | 118 ft | 21 kts | 211° |
| 2026-04-25 00:04 | 32.00589 | 34.87862 | 119 ft | 17 kts | 275° |
| 2026-04-25 00:05 | 32.00628 | 34.87783 | 119 ft | 17 kts | 307° |
| 2026-04-25 00:05 | 32.00687 | 34.87670 | 117 ft | 16 kts | 301° |
| 2026-04-25 00:05 | 32.00743 | 34.87560 | 117 ft | 15 kts | 301° |
| 2026-04-25 00:05 | 32.00797 | 34.87456 | 119 ft | 15 kts | 301° |
| 2026-04-25 00:06 | 32.00851 | 34.87352 | 118 ft | 16 kts | 301° |
| 2026-04-25 00:06 | 32.00915 | 34.87229 | 117 ft | 19 kts | 301° |
| 2026-04-25 00:06 | 32.00991 | 34.87082 | 118 ft | 23 kts | 301° |
| 2026-04-25 00:06 | 32.01078 | 34.86913 | 116 ft | 26 kts | 301° |
| 2026-04-25 00:07 | 32.01168 | 34.86722 | 118 ft | 28 kts | 282° |
| 2026-04-25 00:07 | 32.01140 | 34.86507 | 118 ft | 26 kts | 260° |
| 2026-04-25 00:07 | 32.01114 | 34.86321 | 115 ft | 16 kts | 264° |
| 2026-04-25 00:07 | 32.01122 | 34.86197 | 119 ft | 15 kts | 283° |
| 2026-04-25 00:08 | 32.01152 | 34.86081 | 120 ft | 15 kts | 287° |
| 2026-04-25 00:08 | 32.01167 | 34.85945 | 120 ft | 20 kts | 268° |
| 2026-04-25 00:08 | 32.01143 | 34.85769 | 121 ft | 24 kts | 263° |
| 2026-04-25 00:08 | 32.01228 | 34.85716 | 119 ft | 16 kts | 61° |
| 2026-04-25 00:09 | 32.01240 | 34.85783 | 121 ft | 1 kts | 80° |
| 2026-04-25 00:09 | 32.01241 | 34.85794 | 121 ft | 5 kts | 80° |
| 2026-04-25 00:09 | 32.01302 | 34.86190 | 115 ft | 96 kts | 79° |
| 2026-04-25 00:09 | 32.01473 | 34.87292 | 139 ft | 173 kts | 79° |
| 2026-04-25 00:10 | 32.01713 | 34.88752 | 1029 ft | 182 kts | 78° |
| 2026-04-25 00:10 | 32.01954 | 34.90224 | 2254 ft | 188 kts | 76° |
| 2026-04-25 00:10 | 32.01859 | 34.91778 | 3363 ft | 199 kts | 111° |
| 2026-04-25 00:10 | 32.00890 | 34.93072 | 4135 ft | 225 kts | 152° |
| 2026-04-25 00:11 | 31.99361 | 34.93317 | 5241 ft | 226 kts | 197° |
| 2026-04-25 00:11 | 31.98098 | 34.92305 | 6450 ft | 223 kts | 228° |
| 2026-04-25 00:11 | 31.97158 | 34.90813 | 7446 ft | 225 kts | 234° |
| 2026-04-25 00:11 | 31.96289 | 34.89327 | 8653 ft | 220 kts | 233° |
| 2026-04-25 00:12 | 31.95539 | 34.87697 | 9408 ft | 238 kts | 251° |
| 2026-04-25 00:12 | 31.95399 | 34.85697 | 10105 ft | 257 kts | 274° |
| 2026-04-25 00:12 | 31.95988 | 34.83654 | 10791 ft | 270 kts | 293° |
| 2026-04-25 00:12 | 31.96824 | 34.81682 | 11518 ft | 269 kts | 290° |
| 2026-04-25 00:13 | 31.97575 | 34.79656 | 12263 ft | 271 kts | 288° |
| 2026-04-25 00:13 | 31.98271 | 34.77586 | 13031 ft | 272 kts | 286° |
| 2026-04-25 00:13 | 31.98943 | 34.75498 | 13812 ft | 274 kts | 286° |
| 2026-04-25 00:13 | 31.99609 | 34.73389 | 14526 ft | 274 kts | 285° |
| 2026-04-25 00:14 | 32.00270 | 34.71279 | 15249 ft | 275 kts | 285° |
| 2026-04-25 00:14 | 32.00931 | 34.69160 | 15986 ft | 276 kts | 285° |
| 2026-04-25 00:14 | 32.01597 | 34.67017 | 16765 ft | 282 kts | 285° |
| 2026-04-25 00:14 | 32.02277 | 34.64830 | 17584 ft | 286 kts | 285° |
| 2026-04-25 00:15 | 32.02786 | 34.62578 | 18389 ft | 283 kts | 272° |
| 2026-04-25 00:15 | 32.02919 | 34.60265 | 19148 ft | 283 kts | 268° |
| 2026-04-25 00:15 | 32.02999 | 34.57945 | 19913 ft | 284 kts | 269° |
| 2026-04-25 00:15 | 32.03095 | 34.55617 | 20705 ft | 285 kts | 269° |
| 2026-04-25 00:16 | 32.03207 | 34.53284 | 21509 ft | 285 kts | 270° |
| 2026-04-25 00:16 | 32.03326 | 34.50949 | 22321 ft | 285 kts | 270° |
| 2026-04-25 00:16 | 32.03447 | 34.48616 | 23143 ft | 285 kts | 270° |
| 2026-04-25 00:16 | 32.03569 | 34.46282 | 23895 ft | 284 kts | 269° |
| 2026-04-25 00:17 | 32.03692 | 34.43959 | 24579 ft | 284 kts | 269° |
| 2026-04-25 00:17 | 32.03822 | 34.41675 | 25240 ft | 283 kts | 269° |
| 2026-04-25 00:17 | 32.03957 | 34.39361 | 25911 ft | 282 kts | 269° |
| 2026-04-25 00:17 | 32.04090 | 34.37042 | 26489 ft | 286 kts | 269° |
| 2026-04-25 00:18 | 32.04226 | 34.34602 | 26598 ft | 307 kts | 269° |
| 2026-04-25 00:18 | 32.04371 | 34.32042 | 26990 ft | 317 kts | 269° |
| 2026-04-25 00:18 | 32.04519 | 34.29476 | 27592 ft | 319 kts | 269° |
| 2026-04-25 00:18 | 32.04669 | 34.26854 | 28250 ft | 321 kts | 269° |
| 2026-04-25 00:19 | 32.04837 | 34.24215 | 28872 ft | 325 kts | 273° |
| 2026-04-25 00:19 | 32.05523 | 34.21621 | 29405 ft | 341 kts | 291° |
| 2026-04-25 00:19 | 32.06697 | 34.19161 | 29979 ft | 346 kts | 294° |
| 2026-04-25 00:19 | 32.07961 | 34.16729 | 30443 ft | 350 kts | 295° |
| 2026-04-25 00:20 | 32.09235 | 34.14307 | 30919 ft | 352 kts | 295° |
| 2026-04-25 00:20 | 32.10519 | 34.11843 | 31398 ft | 353 kts | 295° |
| 2026-04-25 00:20 | 32.11799 | 34.09356 | 31853 ft | 355 kts | 295° |
| 2026-04-25 00:20 | 32.13075 | 34.06855 | 32299 ft | 357 kts | 295° |
| 2026-04-25 00:21 | 32.14359 | 34.04324 | 32736 ft | 359 kts | 295° |
| 2026-04-25 00:21 | 32.15644 | 34.01786 | 33152 ft | 361 kts | 295° |
| 2026-04-25 00:21 | 32.16930 | 33.99235 | 33560 ft | 362 kts | 294° |
| 2026-04-25 00:21 | 32.18106 | 33.96647 | 33933 ft | 362 kts | 291° |
| 2026-04-25 00:22 | 32.19220 | 33.93973 | 34317 ft | 362 kts | 290° |
| 2026-04-25 00:22 | 32.20310 | 33.91281 | 34668 ft | 363 kts | 289° |
| 2026-04-25 00:22 | 32.21398 | 33.88582 | 34986 ft | 365 kts | 289° |
| 2026-04-25 00:22 | 32.22484 | 33.85898 | 35269 ft | 367 kts | 290° |
| 2026-04-25 00:23 | 32.23592 | 33.83174 | 35557 ft | 369 kts | 290° |
| 2026-04-25 00:23 | 32.24715 | 33.80428 | 35844 ft | 371 kts | 290° |
| 2026-04-25 00:23 | 32.25844 | 33.77678 | 36126 ft | 372 kts | 290° |
| 2026-04-25 00:23 | 32.26976 | 33.74921 | 36398 ft | 374 kts | 290° |
| 2026-04-25 00:24 | 32.28118 | 33.72144 | 36668 ft | 375 kts | 290° |
| 2026-04-25 00:24 | 32.29248 | 33.69395 | 36926 ft | 377 kts | 290° |
| 2026-04-25 00:24 | 32.30398 | 33.66597 | 37192 ft | 379 kts | 290° |
| 2026-04-25 00:24 | 32.31555 | 33.63779 | 37427 ft | 381 kts | 290° |
| 2026-04-25 00:25 | 32.32714 | 33.60955 | 37663 ft | 382 kts | 290° |
| 2026-04-25 00:25 | 32.33876 | 33.58121 | 37888 ft | 384 kts | 290° |
| 2026-04-25 00:25 | 32.36236 | 33.52348 | 37882 ft | 397 kts | 293° |
| 2026-04-25 00:26 | 32.38657 | 33.46419 | 37888 ft | 406 kts | 290° |
| 2026-04-25 00:26 | 32.41154 | 33.40302 | 37906 ft | 418 kts | 290° |
| 2026-04-25 00:27 | 32.43699 | 33.34058 | 37890 ft | 425 kts | 290° |
| 2026-04-25 00:27 | 32.46271 | 33.27748 | 37891 ft | 424 kts | 290° |
| 2026-04-25 00:28 | 32.48817 | 33.21484 | 37897 ft | 423 kts | 290° |
| 2026-04-25 00:28 | 32.51365 | 33.15197 | 37908 ft | 422 kts | 290° |
| 2026-04-25 00:29 | 32.53911 | 33.08904 | 37901 ft | 422 kts | 290° |
| 2026-04-25 00:29 | 32.56445 | 33.02628 | 37894 ft | 421 kts | 290° |
| 2026-04-25 00:30 | 32.58966 | 32.96373 | 37898 ft | 420 kts | 290° |
| 2026-04-25 00:30 | 32.61468 | 32.90154 | 37906 ft | 419 kts | 290° |
| 2026-04-25 00:31 | 32.63965 | 32.83935 | 37907 ft | 419 kts | 290° |
| 2026-04-25 00:31 | 32.66468 | 32.77691 | 37905 ft | 419 kts | 290° |
| 2026-04-25 00:32 | 32.68979 | 32.71418 | 37905 ft | 419 kts | 290° |
| 2026-04-25 00:32 | 32.71463 | 32.65197 | 37904 ft | 419 kts | 290° |
| 2026-04-25 00:33 | 32.73966 | 32.58920 | 37917 ft | 419 kts | 290° |
| 2026-04-25 00:33 | 32.76451 | 32.52676 | 37905 ft | 420 kts | 290° |
| 2026-04-25 00:34 | 32.78948 | 32.46391 | 37909 ft | 420 kts | 290° |
| 2026-04-25 00:34 | 32.81448 | 32.40090 | 37908 ft | 420 kts | 290° |
| 2026-04-25 00:35 | 32.83928 | 32.33825 | 37924 ft | 421 kts | 290° |
| 2026-04-25 00:35 | 32.86422 | 32.27516 | 37910 ft | 421 kts | 290° |
| 2026-04-25 00:36 | 32.88914 | 32.21201 | 37906 ft | 421 kts | 290° |
| 2026-04-25 00:36 | 32.91382 | 32.14932 | 37905 ft | 420 kts | 290° |
| 2026-04-25 00:37 | 32.93859 | 32.08631 | 37906 ft | 420 kts | 290° |
| 2026-04-25 00:37 | 32.96336 | 32.02316 | 37908 ft | 420 kts | 289° |
| 2026-04-25 00:38 | 32.98795 | 31.96035 | 37905 ft | 419 kts | 289° |
| 2026-04-25 00:38 | 33.01242 | 31.89775 | 37907 ft | 419 kts | 289° |
| 2026-04-25 00:39 | 33.03705 | 31.83464 | 37909 ft | 418 kts | 289° |
| 2026-04-25 00:39 | 33.06152 | 31.77179 | 37919 ft | 418 kts | 289° |
| 2026-04-25 00:40 | 33.08583 | 31.70925 | 37908 ft | 418 kts | 289° |
| 2026-04-25 00:40 | 33.11024 | 31.64634 | 37910 ft | 417 kts | 289° |
| 2026-04-25 00:41 | 33.13449 | 31.58371 | 37910 ft | 417 kts | 289° |
| 2026-04-25 00:41 | 33.15882 | 31.52077 | 37927 ft | 417 kts | 289° |
| 2026-04-25 00:42 | 33.18316 | 31.45768 | 37914 ft | 418 kts | 289° |
| 2026-04-25 00:42 | 33.20734 | 31.39490 | 37919 ft | 418 kts | 289° |
| 2026-04-25 00:43 | 33.23163 | 31.33170 | 37918 ft | 418 kts | 289° |
| 2026-04-25 00:43 | 33.25588 | 31.26851 | 37908 ft | 418 kts | 289° |
| 2026-04-25 00:44 | 33.28017 | 31.20508 | 37915 ft | 418 kts | 289° |
| 2026-04-25 00:44 | 33.30423 | 31.14214 | 37910 ft | 418 kts | 289° |
| 2026-04-25 00:45 | 33.32845 | 31.07865 | 37909 ft | 418 kts | 289° |
| 2026-04-25 00:45 | 33.35247 | 31.01558 | 37908 ft | 418 kts | 289° |
| 2026-04-25 00:46 | 33.37663 | 30.95202 | 37934 ft | 419 kts | 289° |
| 2026-04-25 00:47 | 33.41264 | 30.85705 | 37909 ft | 419 kts | 289° |
| 2026-04-25 00:47 | 33.43676 | 30.79331 | 37913 ft | 419 kts | 289° |
| 2026-04-25 00:48 | 33.46062 | 30.73010 | 37914 ft | 419 kts | 289° |
| 2026-04-25 00:48 | 33.48465 | 30.66635 | 37912 ft | 419 kts | 289° |
| 2026-04-25 00:49 | 33.50458 | 30.61337 | 37907 ft | 419 kts | 288° |
| 2026-04-25 00:49 | 33.52836 | 30.55006 | 37910 ft | 419 kts | 288° |
| 2026-04-25 00:50 | 33.55226 | 30.48627 | 37912 ft | 419 kts | 288° |
| 2026-04-25 00:50 | 33.57602 | 30.42278 | 37909 ft | 419 kts | 288° |
| 2026-04-25 00:51 | 33.59987 | 30.35890 | 37914 ft | 419 kts | 289° |
| 2026-04-25 00:51 | 33.62361 | 30.29517 | 37910 ft | 419 kts | 289° |
| 2026-04-25 00:52 | 33.64747 | 30.23103 | 37910 ft | 420 kts | 288° |
| 2026-04-25 00:52 | 33.67117 | 30.16718 | 37907 ft | 420 kts | 288° |
| 2026-04-25 00:53 | 33.69501 | 30.10283 | 37924 ft | 421 kts | 289° |
| 2026-04-25 00:53 | 33.71869 | 30.03881 | 37913 ft | 421 kts | 289° |
| 2026-04-25 00:54 | 33.74241 | 29.97464 | 37910 ft | 422 kts | 289° |
| 2026-04-25 00:54 | 33.76637 | 29.91012 | 37913 ft | 423 kts | 289° |
| 2026-04-25 00:55 | 33.79035 | 29.84550 | 37909 ft | 423 kts | 289° |
| 2026-04-25 00:55 | 33.81429 | 29.78080 | 37915 ft | 423 kts | 289° |
| 2026-04-25 00:56 | 33.83822 | 29.71597 | 37903 ft | 424 kts | 289° |
| 2026-04-25 00:56 | 33.86214 | 29.65105 | 37902 ft | 424 kts | 289° |
| 2026-04-25 00:57 | 33.88585 | 29.58656 | 37899 ft | 424 kts | 289° |
| 2026-04-25 00:57 | 33.90974 | 29.52145 | 37915 ft | 424 kts | 289° |
| 2026-04-25 00:58 | 33.93341 | 29.45683 | 37897 ft | 424 kts | 289° |
| 2026-04-25 00:58 | 33.95718 | 29.39178 | 37895 ft | 423 kts | 289° |
| 2026-04-25 00:59 | 33.98094 | 29.32666 | 37896 ft | 423 kts | 289° |
| 2026-04-25 00:59 | 34.00445 | 29.26206 | 37895 ft | 423 kts | 289° |
| 2026-04-25 01:00 | 34.02799 | 29.19727 | 37898 ft | 423 kts | 290° |
| 2026-04-25 01:00 | 34.05164 | 29.13203 | 37896 ft | 423 kts | 290° |
| 2026-04-25 01:01 | 34.07514 | 29.06712 | 37896 ft | 424 kts | 290° |
| 2026-04-25 01:01 | 34.09871 | 29.00184 | 37883 ft | 424 kts | 290° |
| 2026-04-25 01:02 | 34.12212 | 28.93686 | 37893 ft | 424 kts | 290° |
| 2026-04-25 01:02 | 34.14566 | 28.87142 | 37887 ft | 425 kts | 290° |
| 2026-04-25 01:03 | 34.16924 | 28.80571 | 37884 ft | 425 kts | 290° |
| 2026-04-25 01:03 | 34.19261 | 28.74047 | 37885 ft | 425 kts | 290° |
| 2026-04-25 01:04 | 34.21611 | 28.67474 | 37881 ft | 425 kts | 290° |
| 2026-04-25 01:04 | 34.23959 | 28.60891 | 37879 ft | 426 kts | 290° |
| 2026-04-25 01:05 | 34.26296 | 28.54326 | 37872 ft | 426 kts | 290° |
| 2026-04-25 01:05 | 34.28640 | 28.47729 | 37873 ft | 426 kts | 290° |
| 2026-04-25 01:06 | 34.30964 | 28.41174 | 37876 ft | 426 kts | 290° |
| 2026-04-25 01:06 | 34.33301 | 28.34569 | 37896 ft | 426 kts | 290° |
| 2026-04-25 01:07 | 34.35625 | 28.27987 | 37878 ft | 426 kts | 290° |
| 2026-04-25 01:07 | 34.37956 | 28.21371 | 37876 ft | 426 kts | 290° |
| 2026-04-25 01:08 | 34.40267 | 28.14798 | 37877 ft | 425 kts | 290° |
| 2026-04-25 01:08 | 34.42570 | 28.08233 | 37879 ft | 425 kts | 290° |
| 2026-04-25 01:09 | 34.44883 | 28.01626 | 37883 ft | 425 kts | 290° |
| 2026-04-25 01:09 | 34.47187 | 27.95032 | 37880 ft | 425 kts | 290° |
| 2026-04-25 01:10 | 34.49475 | 27.88469 | 37880 ft | 425 kts | 290° |
| 2026-04-25 01:10 | 34.51773 | 27.81866 | 37882 ft | 425 kts | 290° |
| 2026-04-25 01:11 | 34.53982 | 27.75227 | 37876 ft | 423 kts | 284° |
| 2026-04-25 01:11 | 34.55554 | 27.68343 | 37881 ft | 422 kts | 282° |
| 2026-04-25 01:12 | 34.57012 | 27.61433 | 37883 ft | 423 kts | 282° |
| 2026-04-25 01:12 | 34.58483 | 27.54554 | 37887 ft | 423 kts | 282° |
| 2026-04-25 01:13 | 34.59984 | 27.47646 | 37889 ft | 423 kts | 282° |
| 2026-04-25 01:13 | 34.61500 | 27.40709 | 37891 ft | 424 kts | 282° |
| 2026-04-25 01:14 | 34.63013 | 27.33775 | 37891 ft | 425 kts | 282° |
| 2026-04-25 01:14 | 34.64514 | 27.26876 | 37895 ft | 426 kts | 282° |
| 2026-04-25 01:15 | 34.66030 | 27.19889 | 37899 ft | 426 kts | 282° |
| 2026-04-25 01:15 | 34.67533 | 27.12935 | 37897 ft | 428 kts | 282° |
| 2026-04-25 01:16 | 34.69047 | 27.05911 | 37905 ft | 429 kts | 282° |
| 2026-04-25 01:16 | 34.70548 | 26.98922 | 37900 ft | 430 kts | 282° |
| 2026-04-25 01:17 | 34.72059 | 26.91873 | 37893 ft | 430 kts | 282° |
| 2026-04-25 01:17 | 34.73556 | 26.84861 | 37913 ft | 432 kts | 282° |
| 2026-04-25 01:18 | 34.75065 | 26.77775 | 37904 ft | 433 kts | 282° |
| 2026-04-25 01:18 | 34.76576 | 26.70658 | 37905 ft | 435 kts | 282° |
| 2026-04-25 01:19 | 34.78077 | 26.63563 | 37908 ft | 436 kts | 282° |
| 2026-04-25 01:19 | 34.79589 | 26.56395 | 37919 ft | 437 kts | 282° |
| 2026-04-25 01:20 | 34.81096 | 26.49229 | 37906 ft | 437 kts | 282° |
| 2026-04-25 01:20 | 34.82597 | 26.42070 | 37905 ft | 436 kts | 282° |
| 2026-04-25 01:21 | 34.84082 | 26.34965 | 37904 ft | 435 kts | 282° |
| 2026-04-25 01:21 | 34.85569 | 26.27828 | 37906 ft | 434 kts | 282° |
| 2026-04-25 01:22 | 34.87039 | 26.20747 | 37908 ft | 433 kts | 282° |
| 2026-04-25 01:22 | 34.88513 | 26.13630 | 37908 ft | 432 kts | 282° |
| 2026-04-25 01:23 | 34.89981 | 26.06515 | 37914 ft | 431 kts | 282° |
| 2026-04-25 01:23 | 34.91431 | 25.99463 | 37910 ft | 430 kts | 282° |
| 2026-04-25 01:24 | 34.92885 | 25.92370 | 37926 ft | 430 kts | 282° |
| 2026-04-25 01:24 | 34.94323 | 25.85336 | 37914 ft | 429 kts | 282° |
| 2026-04-25 01:25 | 34.95765 | 25.78259 | 37917 ft | 429 kts | 282° |
| 2026-04-25 01:25 | 34.97192 | 25.71231 | 37920 ft | 429 kts | 282° |
| 2026-04-25 01:26 | 34.98622 | 25.64166 | 37918 ft | 429 kts | 282° |
| 2026-04-25 01:26 | 35.00051 | 25.57085 | 37925 ft | 429 kts | 282° |
| 2026-04-25 01:27 | 35.01466 | 25.50046 | 37925 ft | 429 kts | 282° |
| 2026-04-25 01:27 | 35.02888 | 25.42955 | 37926 ft | 430 kts | 282° |
| 2026-04-25 01:28 | 35.05015 | 25.32303 | 37936 ft | 430 kts | 282° |
| 2026-04-25 01:28 | 35.06420 | 25.25237 | 37924 ft | 431 kts | 282° |
| 2026-04-25 01:29 | 35.07834 | 25.18103 | 37918 ft | 432 kts | 282° |
| 2026-04-25 01:29 | 35.09244 | 25.10965 | 37920 ft | 432 kts | 282° |
| 2026-04-25 01:30 | 35.10642 | 25.03868 | 37927 ft | 432 kts | 282° |
| 2026-04-25 01:30 | 35.12043 | 24.96728 | 37934 ft | 432 kts | 282° |
| 2026-04-25 01:31 | 35.13441 | 24.89579 | 37934 ft | 432 kts | 282° |
| 2026-04-25 01:31 | 35.14837 | 24.82418 | 37924 ft | 432 kts | 282° |
| 2026-04-25 01:32 | 35.16216 | 24.75321 | 37924 ft | 431 kts | 282° |
| 2026-04-25 01:32 | 35.17600 | 24.68171 | 37924 ft | 431 kts | 282° |
| 2026-04-25 01:33 | 35.18978 | 24.61030 | 37927 ft | 431 kts | 281° |
| 2026-04-25 01:33 | 35.20351 | 24.53891 | 37931 ft | 431 kts | 281° |
| 2026-04-25 01:34 | 35.21711 | 24.46793 | 37926 ft | 431 kts | 282° |
| 2026-04-25 01:34 | 35.23077 | 24.39643 | 37933 ft | 430 kts | 281° |
| 2026-04-25 01:35 | 35.24428 | 24.32549 | 37940 ft | 431 kts | 282° |
| 2026-04-25 01:35 | 35.25789 | 24.25378 | 37934 ft | 432 kts | 282° |
| 2026-04-25 01:36 | 35.27149 | 24.18183 | 37927 ft | 433 kts | 282° |
| 2026-04-25 01:36 | 35.28498 | 24.11022 | 37933 ft | 434 kts | 282° |
| 2026-04-25 01:37 | 35.29628 | 24.05003 | 37938 ft | 435 kts | 282° |
| 2026-04-25 01:37 | 35.31203 | 23.96591 | 37933 ft | 436 kts | 282° |
| 2026-04-25 01:38 | 35.32326 | 23.90570 | 37935 ft | 436 kts | 282° |
| 2026-04-25 01:38 | 35.33674 | 23.83319 | 37935 ft | 436 kts | 282° |
| 2026-04-25 01:39 | 35.35017 | 23.76072 | 37936 ft | 435 kts | 282° |
| 2026-04-25 01:39 | 35.36346 | 23.68871 | 37948 ft | 435 kts | 282° |
| 2026-04-25 01:40 | 35.37677 | 23.61631 | 37929 ft | 435 kts | 282° |
| 2026-04-25 01:40 | 35.38998 | 23.54423 | 37941 ft | 434 kts | 282° |
| 2026-04-25 01:41 | 35.40322 | 23.47175 | 37943 ft | 434 kts | 282° |
| 2026-04-25 01:41 | 35.41630 | 23.39985 | 37954 ft | 434 kts | 282° |
| 2026-04-25 01:42 | 35.42940 | 23.32763 | 37954 ft | 434 kts | 282° |
| 2026-04-25 01:42 | 35.44244 | 23.25543 | 37933 ft | 433 kts | 282° |
| 2026-04-25 01:43 | 35.45542 | 23.18335 | 37941 ft | 432 kts | 282° |
| 2026-04-25 01:43 | 35.46835 | 23.11122 | 37950 ft | 431 kts | 282° |
| 2026-04-25 01:44 | 35.48115 | 23.03959 | 37949 ft | 431 kts | 282° |
| 2026-04-25 01:44 | 35.49397 | 22.96758 | 37946 ft | 431 kts | 282° |
| 2026-04-25 01:45 | 35.50669 | 22.89589 | 37959 ft | 432 kts | 282° |
| 2026-04-25 01:45 | 35.51947 | 22.82360 | 37962 ft | 432 kts | 282° |
| 2026-04-25 01:46 | 35.53213 | 22.75169 | 37957 ft | 433 kts | 282° |
| 2026-04-25 01:46 | 35.54485 | 22.67922 | 37972 ft | 434 kts | 282° |
| 2026-04-25 01:47 | 35.55757 | 22.60642 | 37968 ft | 435 kts | 282° |
| 2026-04-25 01:47 | 35.57027 | 22.53352 | 37960 ft | 436 kts | 282° |
| 2026-04-25 01:48 | 35.58286 | 22.46094 | 37974 ft | 436 kts | 282° |
| 2026-04-25 01:48 | 35.59547 | 22.38794 | 37973 ft | 436 kts | 283° |
| 2026-04-25 01:49 | 35.60807 | 22.31480 | 37986 ft | 437 kts | 282° |
| 2026-04-25 01:49 | 35.62057 | 22.24192 | 37982 ft | 438 kts | 282° |
| 2026-04-25 01:50 | 35.63311 | 22.16853 | 37985 ft | 438 kts | 282° |
| 2026-04-25 01:50 | 35.64564 | 22.09490 | 37967 ft | 439 kts | 283° |
| 2026-04-25 01:51 | 35.65804 | 22.02176 | 37987 ft | 440 kts | 283° |
| 2026-04-25 01:51 | 35.67052 | 21.94785 | 37982 ft | 441 kts | 283° |
| 2026-04-25 01:52 | 35.68296 | 21.87393 | 37987 ft | 442 kts | 283° |
| 2026-04-25 01:52 | 35.69530 | 21.80024 | 37985 ft | 442 kts | 283° |
| 2026-04-25 01:53 | 35.70771 | 21.72588 | 37991 ft | 442 kts | 283° |
| 2026-04-25 01:53 | 35.72000 | 21.65196 | 37985 ft | 442 kts | 283° |
| 2026-04-25 01:54 | 35.73231 | 21.57760 | 37985 ft | 442 kts | 283° |
| 2026-04-25 01:54 | 35.74448 | 21.50378 | 37987 ft | 441 kts | 283° |
| 2026-04-25 01:55 | 35.75665 | 21.42966 | 37992 ft | 441 kts | 283° |
| 2026-04-25 01:55 | 35.76869 | 21.35605 | 37988 ft | 440 kts | 283° |
| 2026-04-25 01:56 | 35.78076 | 21.28197 | 37988 ft | 440 kts | 283° |
| 2026-04-25 01:56 | 35.79277 | 21.20795 | 37988 ft | 440 kts | 283° |
| 2026-04-25 01:57 | 35.81053 | 21.09796 | 37986 ft | 439 kts | 283° |
| 2026-04-25 01:58 | 35.82244 | 21.02382 | 37993 ft | 439 kts | 283° |
| 2026-04-25 01:58 | 35.83422 | 20.95010 | 37989 ft | 438 kts | 283° |
| 2026-04-25 01:59 | 35.84590 | 20.87678 | 37992 ft | 438 kts | 283° |
| 2026-04-25 01:59 | 35.85762 | 20.80292 | 37986 ft | 437 kts | 283° |
| 2026-04-25 02:00 | 35.86919 | 20.72967 | 37997 ft | 437 kts | 283° |
| 2026-04-25 02:00 | 35.88075 | 20.65617 | 38004 ft | 437 kts | 283° |
| 2026-04-25 02:01 | 35.89228 | 20.58257 | 38006 ft | 436 kts | 283° |
| 2026-04-25 02:01 | 35.90377 | 20.50893 | 38003 ft | 436 kts | 282° |
| 2026-04-25 02:02 | 35.91520 | 20.43537 | 38003 ft | 436 kts | 283° |
| 2026-04-25 02:02 | 35.92650 | 20.36234 | 38005 ft | 436 kts | 283° |
| 2026-04-25 02:03 | 35.93784 | 20.28872 | 38008 ft | 436 kts | 282° |
| 2026-04-25 02:03 | 35.94964 | 20.21513 | 38005 ft | 435 kts | 286° |
| 2026-04-25 02:04 | 35.96597 | 20.14356 | 38017 ft | 435 kts | 288° |
| 2026-04-25 02:04 | 35.98352 | 20.07212 | 38010 ft | 435 kts | 288° |
| 2026-04-25 02:05 | 36.00081 | 20.00045 | 38024 ft | 435 kts | 288° |
| 2026-04-25 02:05 | 36.01766 | 19.92916 | 38023 ft | 435 kts | 288° |
| 2026-04-25 02:06 | 36.03449 | 19.85720 | 38025 ft | 436 kts | 288° |
| 2026-04-25 02:06 | 36.05128 | 19.78507 | 38008 ft | 436 kts | 288° |
| 2026-04-25 02:07 | 36.06801 | 19.71306 | 38028 ft | 438 kts | 288° |
| 2026-04-25 02:07 | 36.08479 | 19.64064 | 38024 ft | 439 kts | 288° |
| 2026-04-25 02:08 | 36.10163 | 19.56771 | 38024 ft | 441 kts | 288° |
| 2026-04-25 02:08 | 36.11839 | 19.49490 | 38032 ft | 442 kts | 288° |
| 2026-04-25 02:09 | 36.13507 | 19.42223 | 38027 ft | 442 kts | 288° |
| 2026-04-25 02:09 | 36.15186 | 19.34889 | 38033 ft | 442 kts | 288° |
| 2026-04-25 02:10 | 36.16854 | 19.27573 | 38033 ft | 441 kts | 288° |
| 2026-04-25 02:10 | 36.18519 | 19.20255 | 38040 ft | 441 kts | 288° |
| 2026-04-25 02:11 | 36.20166 | 19.12990 | 38032 ft | 440 kts | 288° |
| 2026-04-25 02:11 | 36.21816 | 19.05689 | 38035 ft | 439 kts | 288° |
| 2026-04-25 02:12 | 36.23451 | 18.98436 | 38037 ft | 439 kts | 288° |
| 2026-04-25 02:12 | 36.25084 | 18.91164 | 38040 ft | 438 kts | 287° |
| 2026-04-25 02:13 | 36.26715 | 18.83881 | 38043 ft | 437 kts | 287° |
| 2026-04-25 02:13 | 36.28341 | 18.76598 | 38036 ft | 437 kts | 287° |
| 2026-04-25 02:14 | 36.29949 | 18.69372 | 38055 ft | 436 kts | 287° |
| 2026-04-25 02:14 | 36.31559 | 18.62115 | 38051 ft | 436 kts | 287° |
| 2026-04-25 02:15 | 36.33156 | 18.54894 | 38052 ft | 436 kts | 287° |
| 2026-04-25 02:15 | 36.34756 | 18.47636 | 38056 ft | 435 kts | 287° |
| 2026-04-25 02:16 | 36.36344 | 18.40409 | 38047 ft | 435 kts | 287° |
| 2026-04-25 02:16 | 36.37934 | 18.33153 | 38055 ft | 435 kts | 287° |
| 2026-04-25 02:17 | 36.39517 | 18.25901 | 38056 ft | 435 kts | 287° |
| 2026-04-25 02:17 | 36.41096 | 18.18648 | 38054 ft | 435 kts | 287° |
| 2026-04-25 02:18 | 36.42664 | 18.11422 | 38054 ft | 435 kts | 287° |
| 2026-04-25 02:18 | 36.44238 | 18.04147 | 38060 ft | 435 kts | 287° |
| 2026-04-25 02:19 | 36.45794 | 17.96926 | 38065 ft | 435 kts | 287° |
| 2026-04-25 02:19 | 36.47360 | 17.89642 | 38062 ft | 436 kts | 287° |
| 2026-04-25 02:20 | 36.48921 | 17.82355 | 38063 ft | 436 kts | 287° |
| 2026-04-25 02:20 | 36.50736 | 17.75205 | 38056 ft | 433 kts | 297° |
| 2026-04-25 02:21 | 36.53411 | 17.68492 | 38061 ft | 433 kts | 298° |
| 2026-04-25 02:21 | 36.56138 | 17.61810 | 38072 ft | 433 kts | 298° |
| 2026-04-25 02:22 | 36.58823 | 17.55139 | 38073 ft | 433 kts | 298° |
| 2026-04-25 02:22 | 36.61503 | 17.48404 | 38071 ft | 433 kts | 298° |
| 2026-04-25 02:22 | 36.62825 | 17.45063 | 37902 ft | 427 kts | 298° |
| 2026-04-25 02:23 | 36.64126 | 17.41770 | 37577 ft | 419 kts | 298° |
| 2026-04-25 02:23 | 36.65389 | 17.38566 | 37134 ft | 414 kts | 298° |
| 2026-04-25 02:23 | 36.66652 | 17.35364 | 36742 ft | 409 kts | 298° |
| 2026-04-25 02:23 | 36.67901 | 17.32193 | 36312 ft | 405 kts | 299° |
| 2026-04-25 02:24 | 36.69140 | 17.29049 | 35906 ft | 401 kts | 299° |
| 2026-04-25 02:24 | 36.70369 | 17.25926 | 35484 ft | 399 kts | 299° |
| 2026-04-25 02:24 | 36.71175 | 17.23875 | 35217 ft | 397 kts | 299° |
| 2026-04-25 02:24 | 36.72778 | 17.19796 | 34666 ft | 394 kts | 300° |
| 2026-04-25 02:25 | 36.73979 | 17.16735 | 34255 ft | 392 kts | 300° |
| 2026-04-25 02:25 | 36.75174 | 17.13688 | 33801 ft | 390 kts | 300° |
| 2026-04-25 02:25 | 36.75981 | 17.11628 | 33496 ft | 389 kts | 300° |
| 2026-04-25 02:25 | 36.77149 | 17.08643 | 33072 ft | 386 kts | 300° |
| 2026-04-25 02:26 | 36.78329 | 17.05627 | 32662 ft | 383 kts | 300° |
| 2026-04-25 02:26 | 36.79494 | 17.02642 | 32248 ft | 381 kts | 300° |
| 2026-04-25 02:26 | 36.80651 | 16.99677 | 31864 ft | 378 kts | 300° |
| 2026-04-25 02:26 | 36.81785 | 16.96769 | 31484 ft | 376 kts | 300° |
| 2026-04-25 02:27 | 36.82929 | 16.93832 | 31102 ft | 374 kts | 300° |
| 2026-04-25 02:27 | 36.84066 | 16.90910 | 30723 ft | 372 kts | 300° |
| 2026-04-25 02:27 | 36.85194 | 16.88010 | 30348 ft | 371 kts | 301° |
| 2026-04-25 02:27 | 36.86318 | 16.85116 | 29935 ft | 369 kts | 301° |
| 2026-04-25 02:28 | 36.87435 | 16.82240 | 29505 ft | 367 kts | 301° |
| 2026-04-25 02:28 | 36.88542 | 16.79384 | 29065 ft | 364 kts | 301° |
| 2026-04-25 02:28 | 36.89639 | 16.76550 | 28672 ft | 360 kts | 301° |
| 2026-04-25 02:28 | 36.90713 | 16.73774 | 28262 ft | 357 kts | 301° |
| 2026-04-25 02:29 | 36.91794 | 16.70980 | 27861 ft | 355 kts | 301° |
| 2026-04-25 02:29 | 36.92863 | 16.68213 | 27443 ft | 352 kts | 301° |
| 2026-04-25 02:29 | 36.93923 | 16.65466 | 27061 ft | 349 kts | 301° |
| 2026-04-25 02:29 | 36.94975 | 16.62739 | 26669 ft | 347 kts | 301° |
| 2026-04-25 02:30 | 36.96018 | 16.60033 | 26278 ft | 344 kts | 301° |
| 2026-04-25 02:30 | 36.97045 | 16.57367 | 25895 ft | 342 kts | 301° |
| 2026-04-25 02:30 | 36.98077 | 16.54686 | 25502 ft | 341 kts | 301° |
| 2026-04-25 02:30 | 36.99101 | 16.52022 | 25116 ft | 339 kts | 300° |
| 2026-04-25 02:31 | 37.00122 | 16.49364 | 24722 ft | 338 kts | 300° |
| 2026-04-25 02:31 | 37.01138 | 16.46717 | 24337 ft | 337 kts | 300° |
| 2026-04-25 02:31 | 37.02154 | 16.44067 | 23931 ft | 336 kts | 300° |
| 2026-04-25 02:31 | 37.03165 | 16.41430 | 23481 ft | 336 kts | 300° |
| 2026-04-25 02:32 | 37.04175 | 16.38792 | 23044 ft | 335 kts | 300° |
| 2026-04-25 02:32 | 37.05163 | 16.36206 | 22618 ft | 333 kts | 300° |
| 2026-04-25 02:32 | 37.06160 | 16.33599 | 22202 ft | 330 kts | 300° |
| 2026-04-25 02:32 | 37.07146 | 16.31014 | 21815 ft | 328 kts | 300° |
| 2026-04-25 02:33 | 37.08129 | 16.28436 | 21429 ft | 326 kts | 300° |
| 2026-04-25 02:33 | 37.09103 | 16.25882 | 21035 ft | 324 kts | 300° |
| 2026-04-25 02:33 | 37.10071 | 16.23340 | 20648 ft | 322 kts | 299° |
| 2026-04-25 02:33 | 37.11033 | 16.20811 | 20257 ft | 320 kts | 299° |
| 2026-04-25 02:34 | 37.11978 | 16.18327 | 19879 ft | 319 kts | 299° |
| 2026-04-25 02:34 | 37.12931 | 16.15819 | 19488 ft | 317 kts | 299° |
| 2026-04-25 02:34 | 37.13881 | 16.13316 | 19106 ft | 316 kts | 299° |
| 2026-04-25 02:34 | 37.14826 | 16.10827 | 18709 ft | 315 kts | 299° |
| 2026-04-25 02:35 | 37.15755 | 16.08376 | 18302 ft | 315 kts | 299° |
| 2026-04-25 02:35 | 37.16696 | 16.05891 | 17869 ft | 313 kts | 299° |
| 2026-04-25 02:35 | 37.17628 | 16.03427 | 17460 ft | 311 kts | 299° |
| 2026-04-25 02:35 | 37.18551 | 16.00984 | 17047 ft | 309 kts | 299° |
| 2026-04-25 02:36 | 37.19467 | 15.98561 | 16652 ft | 306 kts | 299° |
| 2026-04-25 02:36 | 37.20377 | 15.96150 | 16268 ft | 304 kts | 299° |
| 2026-04-25 02:36 | 37.21278 | 15.93760 | 15885 ft | 301 kts | 299° |
| 2026-04-25 02:36 | 37.22159 | 15.91424 | 15511 ft | 299 kts | 298° |
| 2026-04-25 02:37 | 37.23047 | 15.89066 | 15135 ft | 297 kts | 298° |
| 2026-04-25 02:37 | 37.23926 | 15.86733 | 14758 ft | 295 kts | 298° |
| 2026-04-25 02:37 | 37.24797 | 15.84416 | 14388 ft | 292 kts | 298° |
| 2026-04-25 02:37 | 37.25662 | 15.82115 | 14012 ft | 291 kts | 298° |
| 2026-04-25 02:38 | 37.26510 | 15.79820 | 13611 ft | 289 kts | 296° |
| 2026-04-25 02:38 | 37.27209 | 15.77464 | 13211 ft | 288 kts | 292° |
| 2026-04-25 02:38 | 37.27844 | 15.75089 | 12817 ft | 286 kts | 291° |
| 2026-04-25 02:38 | 37.28474 | 15.72736 | 12432 ft | 283 kts | 291° |
| 2026-04-25 02:39 | 37.29109 | 15.70405 | 12052 ft | 281 kts | 292° |
| 2026-04-25 02:39 | 37.29746 | 15.68093 | 11677 ft | 279 kts | 292° |
| 2026-04-25 02:39 | 37.30379 | 15.65800 | 11305 ft | 277 kts | 292° |
| 2026-04-25 02:39 | 37.30801 | 15.63483 | 10920 ft | 279 kts | 274° |
| 2026-04-25 02:40 | 37.30759 | 15.61016 | 10596 ft | 278 kts | 270° |
| 2026-04-25 02:40 | 37.30671 | 15.58589 | 10248 ft | 278 kts | 269° |
| 2026-04-25 02:40 | 37.30582 | 15.56165 | 9890 ft | 277 kts | 269° |
| 2026-04-25 02:40 | 37.30499 | 15.53762 | 9505 ft | 275 kts | 269° |
| 2026-04-25 02:41 | 37.30423 | 15.51374 | 9139 ft | 272 kts | 270° |
| 2026-04-25 02:41 | 37.30350 | 15.49004 | 8784 ft | 270 kts | 270° |
| 2026-04-25 02:41 | 37.30281 | 15.46660 | 8445 ft | 267 kts | 270° |
| 2026-04-25 02:41 | 37.30214 | 15.44334 | 8108 ft | 265 kts | 269° |
| 2026-04-25 02:42 | 37.30147 | 15.42029 | 7777 ft | 263 kts | 269° |
| 2026-04-25 02:42 | 37.30082 | 15.39739 | 7446 ft | 262 kts | 268° |
| 2026-04-25 02:42 | 37.30016 | 15.37462 | 7120 ft | 260 kts | 268° |
| 2026-04-25 02:42 | 37.29950 | 15.35217 | 6725 ft | 261 kts | 268° |
| 2026-04-25 02:43 | 37.30186 | 15.32950 | 6346 ft | 260 kts | 293° |
| 2026-04-25 02:43 | 37.31103 | 15.31016 | 6034 ft | 257 kts | 306° |
| 2026-04-25 02:43 | 37.32168 | 15.29223 | 5692 ft | 255 kts | 308° |
| 2026-04-25 02:43 | 37.33233 | 15.27454 | 5357 ft | 253 kts | 307° |
| 2026-04-25 02:44 | 37.34282 | 15.25689 | 5029 ft | 249 kts | 307° |
| 2026-04-25 02:44 | 37.35287 | 15.23958 | 4701 ft | 241 kts | 302° |
| 2026-04-25 02:44 | 37.35872 | 15.22022 | 4398 ft | 234 kts | 284° |
| 2026-04-25 02:44 | 37.36264 | 15.20117 | 4137 ft | 222 kts | 285° |
| 2026-04-25 02:45 | 37.36654 | 15.18296 | 3860 ft | 210 kts | 285° |
| 2026-04-25 02:45 | 37.37035 | 15.16548 | 3600 ft | 200 kts | 285° |
| 2026-04-25 02:45 | 37.37394 | 15.14917 | 3340 ft | 192 kts | 285° |
| 2026-04-25 02:45 | 37.37745 | 15.13327 | 3084 ft | 185 kts | 285° |
| 2026-04-25 02:46 | 37.38061 | 15.11795 | 2843 ft | 178 kts | 281° |
| 2026-04-25 02:46 | 37.38252 | 15.10287 | 2613 ft | 171 kts | 278° |
| 2026-04-25 02:46 | 37.38418 | 15.08843 | 2400 ft | 161 kts | 278° |
| 2026-04-25 02:46 | 37.38572 | 15.07510 | 2214 ft | 147 kts | 278° |
| 2026-04-25 02:47 | 37.38720 | 15.06248 | 2089 ft | 148 kts | 278° |
| 2026-04-25 02:47 | 37.38864 | 15.04992 | 2030 ft | 142 kts | 278° |
| 2026-04-25 02:47 | 37.39002 | 15.03801 | 1716 ft | 133 kts | 279° |
| 2026-04-25 02:47 | 37.39134 | 15.02674 | 1515 ft | 129 kts | 278° |
| 2026-04-25 02:48 | 37.39265 | 15.01558 | 1354 ft | 131 kts | 279° |
| 2026-04-25 02:48 | 37.39396 | 15.00415 | 1181 ft | 133 kts | 278° |
| 2026-04-25 02:48 | 37.39528 | 14.99249 | 1029 ft | 136 kts | 278° |
| 2026-04-25 02:48 | 37.39662 | 14.98077 | 870 ft | 135 kts | 279° |
| 2026-04-25 02:49 | 37.39803 | 14.96903 | 685 ft | 136 kts | 279° |
| 2026-04-25 02:49 | 37.39945 | 14.95750 | 485 ft | 131 kts | 278° |
| 2026-04-25 02:49 | 37.40078 | 14.94624 | 306 ft | 129 kts | 278° |
| 2026-04-25 02:49 | 37.40210 | 14.93497 | 121 ft | 130 kts | 278° |
| 2026-04-25 02:50 | 37.40331 | 14.92471 | 94 ft | 99 kts | 278° |
| 2026-04-25 02:50 | 37.40410 | 14.91797 | 93 ft | 56 kts | 278° |
| 2026-04-25 02:50 | 37.40458 | 14.91383 | 92 ft | 45 kts | 278° |
| 2026-04-25 02:50 | 37.40501 | 14.91018 | 90 ft | 36 kts | 278° |
| 2026-04-25 02:51 | 37.40603 | 14.90931 | 94 ft | 18 kts | 22° |
| 2026-04-25 02:51 | 37.40624 | 14.90985 | 92 ft | 0 kts | 95° |